Latest Coastal Weather Observations for Flinders Reef

IDQ60701

Issued at 11:22 pm EST Wednesday 10 August 2022 (issued every 10 minutes, with the page automatically refreshed every 10 minutes)

About coastal observations | Map of coastal stations | Coastal observations for QLD | Marine services | Other Formats
Station Details ID: 200783 Name: FLINDERS REEF Lat: -17.72 Lon: 148.45 Height: 2.6 m
Data from the previous 72 hours. | See also: Recent months at Flinders Reef
Date/Time
EST
Wind Sea
Height
m
Swell Vis
km
Cloud Weather Temp
°C
Press
MSL
hPa
Rain since
9am
mm
Dir  Spd
kts
Gust
kts
Height
m
Period
s
Dir
10/11:00pm E 22 26 - - - - - - - 23.4 1018.7 -
10/10:30pm E 23 27 - - - - - - - 23.3 1018.7 -
10/10:00pm E 24 28 - - - - - - - 23.4 1018.8 -
10/09:30pm E 24 28 - - - - - - - 23.5 1018.5 -
10/09:00pm E 23 27 - - - - - - - 23.4 1018.4 -
10/08:30pm E 22 25 - - - - - - - 23.5 1018.2 -
10/08:00pm E 23 28 - - - - - - - 23.5 1017.9 -
10/07:30pm E 21 26 - - - - - - - 23.1 1017.8 -
10/07:00pm ESE 20 25 - - - - - - - 23.5 1017.6 -
10/06:30pm ESE 21 25 - - - - - - - 23.2 1017.2 -
10/06:00pm ESE 20 24 - - - - - - - 23.5 1017.0 -
10/05:30pm ESE 22 26 - - - - - - - 23.1 1016.7 -
10/05:00pm ESE 18 23 - - - - - - - 22.0 1016.7 -
10/04:30pm ESE 21 27 - - - - - - - 22.7 1016.5 -
10/04:00pm ESE 19 22 - - - - - - - 23.3 1016.4 -
10/03:30pm SE 16 18 - - - - - - - 22.6 1016.3 -
10/03:00pm SE 20 23 - - - - - - - 22.8 1016.3 -
10/02:30pm SE 18 25 - - - - - - - 22.4 1016.5 -
10/02:00pm ESE 21 24 - - - - - - - 23.1 1016.6 -
10/01:30pm ESE 21 24 - - - - - - - 23.2 1017.1 -
10/01:00pm ESE 21 25 - - - - - - - 23.4 1017.3 -
10/12:30pm ESE 22 25 - - - - - - - 23.3 1017.5 -
10/12:00pm ESE 20 25 - - - - - - - 23.3 1017.8 -
10/11:30am SE 21 25 - - - - - - - 23.3 1018.3 -
10/11:00am SE 21 25 - - - - - - - 23.2 1018.6 -
10/10:30am SE 21 25 - - - - - - - 23.0 1018.7 -
10/10:00am SE 19 24 - - - - - - - 22.6 1019.0 -
10/09:30am SE 21 25 - - - - - - - 22.8 1019.0 -
10/09:00am SE 19 23 - - - - - - - 22.9 1018.9 -
10/08:30am ESE 21 24 - - - - - - - 22.9 1018.6 -
10/08:00am SE 21 24 - - - - - - - 23.1 1018.3 -
10/07:30am SE 22 26 - - - - - - - 23.1 1018.0 -
10/07:00am SE 22 25 - - - - - - - 22.8 1017.7 -
10/06:30am SE 21 25 - - - - - - - 22.7 1017.2 -
10/06:00am SE 20 24 - - - - - - - 22.9 1017.0 -
10/05:30am ESE 20 25 - - - - - - - 22.5 1016.6 -
10/05:22am SE 11 22 - - - - - - - 22.4 1016.5 -
10/05:00am SSE 21 24 - - - - - - - 21.7 1016.4 -
10/04:30am SE 19 22 - - - - - - - 22.0 1016.0 -
10/04:00am SE 18 21 - - - - - - - 22.3 1016.1 -
10/03:30am SE 18 21 - - - - - - - 22.3 1016.4 -
10/03:00am SE 18 23 - - - - - - - 22.3 1016.4 -
10/02:30am SE 18 22 - - - - - - - 22.3 1016.7 -
10/02:00am SE 17 21 - - - - - - - 22.5 1016.8 -
10/01:30am SE 16 19 - - - - - - - 22.5 1017.1 -
10/01:00am SE 16 19 - - - - - - - 22.5 1017.3 -
10/12:30am SE 16 20 - - - - - - - 22.4 1017.5 -
10/12:00am ESE 16 18 - - - - - - - 22.5 1017.7 -
 
Date/Time
EST
Wind Sea
Height
m
Swell Vis
km
Cloud Weather Temp
°C
Press
MSL
hPa
Rain since
9am
mm
Dir  Spd
kts
Gust
kts
Height
m
Period
s
Dir
09/11:30pm ESE 17 19 - - - - - - - 22.5 1018.0 -
09/11:00pm SE 18 23 - - - - - - - 22.3 1018.3 -
09/10:38pm SE 19 29 - - - - - - - 22.6 1018.3 -
09/10:30pm SE 21 24 - - - - - - - 22.2 1018.3 -
09/10:00pm SE 21 25 - - - - - - - 22.3 1018.3 -
09/09:30pm ESE 20 25 - - - - - - - 22.1 1018.3 -
09/09:00pm ESE 18 21 - - - - - - - 22.1 1018.3 -
09/08:30pm ESE 18 23 - - - - - - - 22.2 1018.1 -
09/08:00pm ESE 19 24 - - - - - - - 21.9 1017.7 -
09/07:30pm SE 20 23 - - - - - - - 21.8 1017.3 -
09/07:00pm SE 21 25 - - - - - - - 21.8 1016.9 -
09/06:30pm SE 19 24 - - - - - - - 21.8 1016.7 -
09/06:00pm SSE 20 23 - - - - - - - 21.6 1016.3 -
09/05:30pm SE 19 24 - - - - - - - 21.7 1016.0 -
09/05:00pm SE 19 23 - - - - - - - 21.7 1015.7 -
09/04:30pm SSE 19 23 - - - - - - - 21.6 1015.4 -
09/04:00pm SSE 20 24 - - - - - - - 21.8 1015.1 -
09/03:30pm SSE 20 24 - - - - - - - 21.8 1014.6 -
09/03:00pm SSE 20 24 - - - - - - - 21.6 1014.6 -
09/02:30pm SSE 20 24 - - - - - - - 21.6 1014.7 -
09/02:00pm SSE 20 25 - - - - - - - 21.5 1015.3 -
09/01:30pm SSE 20 24 - - - - - - - 21.7 1015.5 -
09/01:00pm SSE 20 24 - - - - - - - 21.5 1016.0 -
09/12:30pm SSE 20 24 - - - - - - - 21.6 1016.2 -
09/12:00pm SSE 19 22 - - - - - - - 21.7 1016.7 -
09/11:30am SE 20 24 - - - - - - - 21.7 1016.9 -
09/11:00am SE 20 23 - - - - - - - 21.7 1017.3 -
09/10:30am SE 20 23 - - - - - - - 21.8 1017.6 -
09/10:00am SE 19 24 - - - - - - - 21.8 1017.9 -
09/09:30am SE 20 23 - - - - - - - 21.8 1018.0 -
09/09:00am SE 19 23 - - - - - - - 21.8 1017.9 -
09/08:30am SE 18 23 - - - - - - - 21.8 1017.7 -
09/08:00am SE 19 23 - - - - - - - 21.8 1017.4 -
09/07:30am SE 21 26 - - - - - - - 21.8 1017.2 -
09/07:00am SE 19 24 - - - - - - - 22.2 1016.9 -
09/06:30am SE 19 24 - - - - - - - 22.2 1016.7 -
09/06:00am SE 20 23 - - - - - - - 22.2 1016.4 -
09/05:30am SE 22 25 - - - - - - - 22.0 1015.9 -
09/05:00am SE 21 23 - - - - - - - 22.2 1015.9 -
09/04:30am SE 21 24 - - - - - - - 22.0 1015.7 -
09/04:00am SE 23 26 - - - - - - - 22.4 1015.5 -
09/03:30am SE 23 27 - - - - - - - 22.3 1015.6 -
09/03:00am SE 22 25 - - - - - - - 22.4 1015.8 -
09/02:30am SE 22 26 - - - - - - - 22.7 1015.9 -
09/02:00am SE 22 27 - - - - - - - 22.5 1016.0 -
09/01:30am SE 22 26 - - - - - - - 22.8 1016.2 -
09/01:00am ESE 23 26 - - - - - - - 22.7 1016.3 -
09/12:30am ESE 21 25 - - - - - - - 22.8 1016.4 -
09/12:00am ESE 21 24 - - - - - - - 22.8 1016.6 -
 
Date/Time
EST
Wind Sea
Height
m
Swell Vis
km
Cloud Weather Temp
°C
Press
MSL
hPa
Rain since
9am
mm
Dir  Spd
kts
Gust
kts
Height
m
Period
s
Dir
08/11:30pm SE 21 25 - - - - - - - 23.0 1016.6 -
08/11:00pm ESE 21 24 - - - - - - - 22.9 1016.7 -
08/10:30pm ESE 21 24 - - - - - - - 23.1 1016.7 -
08/10:00pm SE 18 21 - - - - - - - 23.2 1016.9 -
08/09:30pm SE 19 21 - - - - - - - 22.9 1016.8 -
08/09:00pm SE 21 24 - - - - - - - 22.9 1016.7 -
08/08:30pm SE 21 25 - - - - - - - 22.8 1016.6 -
08/08:00pm SE 20 24 - - - - - - - 22.8 1016.2 -
08/07:30pm SE 21 25 - - - - - - - 22.6 1016.1 -
08/07:00pm SSE 23 27 - - - - - - - 22.8 1015.6 -
08/06:30pm SE 23 27 - - - - - - - 22.8 1015.1 -
08/06:00pm SE 23 27 - - - - - - - 22.9 1014.7 -
08/05:30pm SE 22 25 - - - - - - - 23.4 1014.6 -
08/05:00pm SE 22 26 - - - - - - - 23.5 1014.3 -
08/04:30pm SE 22 25 - - - - - - - 23.1 1013.9 -
08/04:00pm SE 22 25 - - - - - - - 23.2 1013.8 -
08/03:30pm SE 22 26 - - - - - - - 23.4 1013.6 -
08/03:00pm SE 23 26 - - - - - - - 23.2 1013.4 -
08/02:30pm SE 23 25 - - - - - - - 23.2 1013.6 -
08/02:00pm SE 22 25 - - - - - - - 23.2 1014.1 -
08/01:30pm SE 23 26 - - - - - - - 23.8 1014.5 -
08/01:00pm SE 22 26 - - - - - - - 23.6 1014.8 -
08/12:30pm SSE 22 26 - - - - - - - 23.6 1015.1 -
08/12:00pm SSE 22 25 - - - - - - - 23.6 1015.2 -
08/11:30am SSE 22 25 - - - - - - - 23.6 1015.5 -
08/11:00am SSE 21 25 - - - - - - - 23.8 1015.8 -
08/10:30am SSE 21 25 - - - - - - - 23.9 1016.1 -
08/10:00am SSE 21 25 - - - - - - - 23.8 1016.2 -
08/09:30am SE 21 23 - - - - - - - 24.0 1016.3 -
08/09:00am SE 19 23 - - - - - - - 23.9 1016.3 -
08/08:30am SE 17 19 - - - - - - - 23.8 1016.3 -
08/08:00am SE 19 21 - - - - - - - 23.8 1016.0 -
08/07:30am SE 18 20 - - - - - - - 24.3 1015.7 -
08/07:00am SE 17 19 - - - - - - - 24.0 1015.5 -
08/06:30am SE 17 20 - - - - - - - 23.8 1015.0 -
08/06:00am SE 17 19 - - - - - - - 23.9 1014.8 -
08/05:30am SE 16 18 - - - - - - - 23.9 1014.3 -
08/05:00am SE 16 18 - - - - - - - 23.8 1014.0 -
08/04:30am SE 17 19 - - - - - - - 23.6 1013.9 -
08/04:00am SE 17 19 - - - - - - - 23.7 1013.9 -
08/03:30am SE 17 19 - - - - - - - 23.8 1013.8 -
08/03:00am SE 17 19 - - - - - - - 23.7 1013.7 -
08/02:30am SE 17 19 - - - - - - - 23.8 1013.8 -
08/02:00am SE 17 20 - - - - - - - 23.9 1013.9 -
08/01:30am SE 16 18 - - - - - - - 23.7 1014.2 -
08/01:00am SE 16 19 - - - - - - - 23.8 1014.5 -
08/12:30am ESE 17 20 - - - - - - - 23.8 1014.8 -
08/12:00am SE 15 17 - - - - - - - 24.1 1015.0 -
 
Date/Time
EST
Wind Sea
Height
m
Swell Vis
km
Cloud Weather Temp
°C
Press
MSL
hPa
Rain since
9am
mm
Dir  Spd
kts
Gust
kts
Height
m
Period
s
Dir
07/11:30pm ESE 18 20 - - - - - - - 23.8 1015.2 -

Other formats

Comma delimited format used in spreadsheet applications
http://www.bom.gov.au/fwo/IDQ60701/IDQ60701.94290.axf

JavaScript Object Notation format (JSON) in row-major order
http://www.bom.gov.au/fwo/IDQ60701/IDQ60701.94290.json

Data quality

Most of these data are generated automatically and are frequently updated. Quality checks on data are not normally performed. It is possible for incorrect values to appear. Refer to information at About Latest Weather Observations and please check the disclaimer before using these data.